createdAt,value
2023-05-25T00:00:24.729Z,2.17
2023-05-25T00:03:11.899Z,2.50
2023-05-25T00:06:01.640Z,2.03
2023-05-25T00:08:49.748Z,2.20
2023-05-25T00:11:38.394Z,2.40
2023-05-25T00:14:25.562Z,2.07
2023-05-25T00:17:12.559Z,2.40
2023-05-25T00:20:02.687Z,2.97
2023-05-25T00:22:49.733Z,2.87
2023-05-25T00:25:36.646Z,2.50
2023-05-25T00:28:25.292Z,2.53
2023-05-25T00:31:12.328Z,2.77
2023-05-25T00:34:00.002Z,2.57
2023-05-25T00:36:48.308Z,3.27
2023-05-25T00:39:35.632Z,2.20
2023-05-25T00:42:22.603Z,2.73
2023-05-25T00:45:11.975Z,2.53
2023-05-25T00:48:00.481Z,2.27
2023-05-25T00:50:48.028Z,2.83
2023-05-25T00:53:37.233Z,2.00
2023-05-25T00:56:29.097Z,2.90
2023-05-25T00:59:22.200Z,2.20
2023-05-25T01:02:13.983Z,2.70
2023-05-25T01:05:03.875Z,2.50
2023-05-25T01:07:54.127Z,2.90
2023-05-25T01:10:43.659Z,3.00
2023-05-25T01:13:30.897Z,2.20
2023-05-25T01:16:18.775Z,2.80
2023-05-25T01:19:07.505Z,2.60
2023-05-25T01:22:02.423Z,2.20
2023-05-25T01:24:52.911Z,2.27
2023-05-25T01:27:44.706Z,2.47
2023-05-25T01:30:33.679Z,2.87
2023-05-25T01:33:21.254Z,2.70
2023-05-25T01:36:08.573Z,2.57
2023-05-25T01:38:57.965Z,2.70
2023-05-25T01:41:45.215Z,2.87
2023-05-25T01:44:32.153Z,2.47
2023-05-25T01:47:26.603Z,2.50
2023-05-25T01:50:19.770Z,2.20
2023-05-25T01:53:15.833Z,2.73
2023-05-25T01:56:08.704Z,2.20
2023-05-25T01:58:57.604Z,2.20
2023-05-25T02:01:46.324Z,2.17
2023-05-25T02:04:34.815Z,2.43
2023-05-25T02:07:23.628Z,2.27
2023-05-25T02:10:11.109Z,2.30
2023-05-25T02:12:59.207Z,2.23
2023-05-25T02:15:46.275Z,2.50
2023-05-25T02:18:34.352Z,2.10
2023-05-25T02:21:21.464Z,2.20
2023-05-25T02:24:09.602Z,2.53
2023-05-25T02:26:56.308Z,2.37
2023-05-25T02:29:45.659Z,2.33
2023-05-25T02:32:33.771Z,2.33
2023-05-25T02:35:20.644Z,2.60
2023-05-25T02:38:07.584Z,2.37
2023-05-25T02:40:54.525Z,2.10
2023-05-25T02:43:41.299Z,2.00
2023-05-25T02:46:36.428Z,1.90
2023-05-25T02:49:23.310Z,2.60
2023-05-25T02:52:09.993Z,2.70
2023-05-25T02:54:59.328Z,3.27
2023-05-25T02:57:46.742Z,3.13
2023-05-25T03:00:33.375Z,2.67
2023-05-25T03:03:21.562Z,2.40
2023-05-25T03:06:09.094Z,2.50
2023-05-25T03:08:56.362Z,2.23
2023-05-25T03:11:43.014Z,2.33
2023-05-25T03:14:30.229Z,2.30
2023-05-25T03:17:16.881Z,2.37
2023-05-25T03:20:06.140Z,2.47
2023-05-25T03:22:53.118Z,2.40
2023-05-25T03:25:43.418Z,2.70
2023-05-25T03:28:30.748Z,2.30
2023-05-25T03:31:17.507Z,2.30
2023-05-25T03:34:04.635Z,2.40
2023-05-25T03:36:55.037Z,2.50
2023-05-25T03:39:42.890Z,2.40
2023-05-25T03:42:29.873Z,2.67
2023-05-25T03:45:17.219Z,2.30
2023-05-25T03:48:04.605Z,2.30
2023-05-25T03:50:51.866Z,2.30
2023-05-25T03:53:40.049Z,2.67
2023-05-25T03:56:27.405Z,2.33
2023-05-25T03:59:14.448Z,2.40
2023-05-25T04:02:01.323Z,2.67
2023-05-25T04:04:50.961Z,3.00
2023-05-25T04:07:38.188Z,3.00
2023-05-25T04:10:26.305Z,2.80
2023-05-25T04:13:13.189Z,2.57
2023-05-25T04:16:00.576Z,2.93
2023-05-25T04:18:47.572Z,2.67
2023-05-25T04:21:34.326Z,3.00
2023-05-25T04:24:21.195Z,2.60
2023-05-25T04:27:09.909Z,3.00
2023-05-25T04:29:57.539Z,2.83
2023-05-25T04:32:45.880Z,2.87
2023-05-25T04:35:32.863Z,2.70
2023-05-25T04:38:20.356Z,2.90
2023-05-25T04:41:07.515Z,2.93
2023-05-25T04:44:06.939Z,3.07
2023-05-25T04:46:56.509Z,2.63
2023-05-25T04:49:43.561Z,3.43
2023-05-25T04:52:30.616Z,3.00
2023-05-25T04:55:17.663Z,3.30
2023-05-25T04:58:05.711Z,3.00
2023-05-25T05:00:54.073Z,3.50
2023-05-25T05:03:40.835Z,3.03
2023-05-25T05:06:27.900Z,3.37
2023-05-25T05:09:14.938Z,3.03
2023-05-25T05:12:03.058Z,3.50
2023-05-25T05:14:49.966Z,4.03
2023-05-25T05:17:38.667Z,4.10
2023-05-25T05:20:25.948Z,3.40
2023-05-25T05:23:13.043Z,3.67
2023-05-25T05:25:59.853Z,3.13
2023-05-25T05:28:47.175Z,3.53
2023-05-25T05:31:34.539Z,3.53
2023-05-25T05:34:25.957Z,3.67
2023-05-25T05:37:13.098Z,3.57
2023-05-25T05:40:00.306Z,3.40
2023-05-25T05:42:47.401Z,3.90
2023-05-25T05:45:34.593Z,4.00
2023-05-25T05:48:21.894Z,3.97
2023-05-25T05:51:10.555Z,3.80
2023-05-25T05:53:57.421Z,4.47
2023-05-25T05:56:44.455Z,3.93
2023-05-25T05:59:31.340Z,3.63
2023-05-25T06:02:18.398Z,3.90
2023-05-25T06:05:06.913Z,3.77
2023-05-25T06:07:55.329Z,3.67
2023-05-25T06:10:42.669Z,4.40
2023-05-25T06:13:29.600Z,4.33
2023-05-25T06:16:16.693Z,3.70
2023-05-25T06:19:03.869Z,3.63
2023-05-25T06:21:51.224Z,3.70
2023-05-25T06:24:39.826Z,3.47
2023-05-25T06:27:26.959Z,3.90
2023-05-25T06:30:14.278Z,3.67
2023-05-25T06:33:01.578Z,4.30
2023-05-25T06:35:48.949Z,3.58
2023-05-25T06:38:36.100Z,3.10
2023-05-25T06:41:24.653Z,4.03
2023-05-25T06:44:11.926Z,3.63
2023-05-25T06:46:59.484Z,3.50
2023-05-25T06:49:46.660Z,3.50
2023-05-25T06:52:33.668Z,3.47
2023-05-25T06:55:20.601Z,3.90
2023-05-25T06:58:09.143Z,3.25
2023-05-25T07:00:56.123Z,3.80
2023-05-25T07:03:43.286Z,3.50
2023-05-25T07:06:30.524Z,3.30
2023-05-25T07:09:17.689Z,3.83
2023-05-25T07:12:07.583Z,3.97
2023-05-25T07:14:55.828Z,3.72
2023-05-25T07:17:42.918Z,4.43
2023-05-25T07:20:30.221Z,4.30
2023-05-25T07:23:17.503Z,4.40
2023-05-25T07:26:06.099Z,3.88
2023-05-25T07:28:53.586Z,4.75
2023-05-25T07:31:41.906Z,4.72
2023-05-25T07:34:28.713Z,4.43
2023-05-25T07:37:15.637Z,4.78
2023-05-25T07:40:02.473Z,4.32
2023-05-25T07:42:49.149Z,4.93
2023-05-25T07:45:36.453Z,4.13
2023-05-25T07:48:25.210Z,4.43
2023-05-25T07:51:12.367Z,4.03
2023-05-25T07:53:59.458Z,4.60
2023-05-25T07:56:46.493Z,4.38
2023-05-25T07:59:33.118Z,4.60
2023-05-25T08:02:20.317Z,4.70
2023-05-25T08:05:10.231Z,5.00
2023-05-25T08:07:57.076Z,4.90
2023-05-25T08:10:45.631Z,4.57
2023-05-25T08:13:32.610Z,4.43
2023-05-25T08:16:19.424Z,4.65
2023-05-25T08:19:06.470Z,5.30
2023-05-25T08:21:54.940Z,5.05
2023-05-25T08:24:41.806Z,4.95
2023-05-25T08:27:28.697Z,4.90
2023-05-25T08:30:15.491Z,4.82
2023-05-25T08:33:02.490Z,4.68
2023-05-25T08:35:50.523Z,4.30
2023-05-25T08:38:38.653Z,4.43
2023-05-25T08:41:26.043Z,4.57
2023-05-25T08:44:14.795Z,4.30
2023-05-25T08:47:07.477Z,4.78
2023-05-25T08:49:56.488Z,4.15
2023-05-25T08:52:46.893Z,4.38
2023-05-25T08:55:36.843Z,4.57
2023-05-25T08:58:32.057Z,4.20
2023-05-25T09:01:21.320Z,4.82
2023-05-25T09:04:08.641Z,4.80
2023-05-25T09:07:08.979Z,4.60
2023-05-25T09:09:58.251Z,4.85
2023-05-25T09:12:48.168Z,4.78
2023-05-25T09:15:35.595Z,4.60
2023-05-25T09:18:22.554Z,4.80
2023-05-25T09:21:10.034Z,4.57
2023-05-25T09:23:57.576Z,4.50
2023-05-25T09:26:50.230Z,4.13
2023-05-25T09:29:38.706Z,5.40
2023-05-25T09:32:26.779Z,4.90
2023-05-25T09:35:15.570Z,4.20
2023-05-25T09:38:02.997Z,4.57
2023-05-25T09:40:50.126Z,4.47
2023-05-25T09:43:42.899Z,4.22
2023-05-25T09:46:37.892Z,3.83
2023-05-25T09:49:25.091Z,4.28
2023-05-25T09:52:13.518Z,3.63
2023-05-25T09:55:00.973Z,3.97
2023-05-25T09:57:48.255Z,3.97
2023-05-25T10:00:35.359Z,3.65
2023-05-25T10:03:24.046Z,3.90
2023-05-25T10:06:11.725Z,3.80
2023-05-25T10:08:59.417Z,4.43
2023-05-25T10:11:46.799Z,4.18
2023-05-25T10:14:37.584Z,3.53
2023-05-25T10:17:25.638Z,3.83
2023-05-25T10:20:16.100Z,4.30
2023-05-25T10:23:10.909Z,4.25
2023-05-25T10:26:01.788Z,4.43
2023-05-25T10:28:51.881Z,3.80
2023-05-25T10:31:40.187Z,4.28
2023-05-25T10:34:28.050Z,3.97
2023-05-25T10:37:17.477Z,4.25
2023-05-25T10:40:08.689Z,3.58
2023-05-25T10:42:56.127Z,3.75
2023-05-25T10:45:44.056Z,3.97
2023-05-25T10:48:37.733Z,3.97
2023-05-25T10:51:24.333Z,4.00
2023-05-25T10:54:17.109Z,3.72
2023-05-25T10:57:11.757Z,4.45
2023-05-25T11:00:06.262Z,4.07
2023-05-25T11:02:56.132Z,4.15
2023-05-25T11:05:51.266Z,3.85
2023-05-25T11:08:50.662Z,3.80
2023-05-25T11:12:04.618Z,4.63
2023-05-25T11:15:16.515Z,4.80
2023-05-25T11:18:03.832Z,4.95
2023-05-25T11:20:51.502Z,4.40
2023-05-25T11:23:53.255Z,4.70
2023-05-25T11:26:54.377Z,4.25
2023-05-25T11:29:42.740Z,4.72
2023-05-25T11:32:29.608Z,4.47
2023-05-25T11:35:16.935Z,4.30
2023-05-25T11:38:07.465Z,4.28
2023-05-25T11:40:54.845Z,4.25
2023-05-25T11:43:43.227Z,4.18
2023-05-25T11:46:33.400Z,4.80
2023-05-25T11:49:22.892Z,4.25
2023-05-25T11:52:10.787Z,4.80
2023-05-25T11:54:57.539Z,4.13
2023-05-25T11:57:44.422Z,4.25
2023-05-25T12:00:33.576Z,4.45
2023-05-25T12:03:39.717Z,4.22
2023-05-25T12:06:31.581Z,4.13
2023-05-25T12:09:22.083Z,4.13
2023-05-25T12:12:09.445Z,4.40
2023-05-25T12:14:57.802Z,4.72
2023-05-25T12:17:46.889Z,4.47
2023-05-25T12:20:38.734Z,3.90
2023-05-25T12:23:25.877Z,4.53
2023-05-25T12:26:14.602Z,5.22
2023-05-25T12:29:02.702Z,4.88
2023-05-25T12:31:49.703Z,5.97
2023-05-25T12:34:36.858Z,4.95
2023-05-25T12:37:25.391Z,4.45
2023-05-25T12:40:20.530Z,4.70
2023-05-25T12:43:08.158Z,5.00
2023-05-25T12:45:55.261Z,4.45
2023-05-25T12:48:42.467Z,4.18
2023-05-25T12:51:39.594Z,4.93
2023-05-25T12:54:44.114Z,5.22
2023-05-25T12:57:36.276Z,5.10
2023-05-25T13:00:25.592Z,5.10
2023-05-25T13:03:12.836Z,4.43
2023-05-25T13:06:03.846Z,5.32
2023-05-25T13:08:50.764Z,5.63
2023-05-25T13:11:39.363Z,5.30
2023-05-25T13:14:27.390Z,4.75
2023-05-25T13:17:14.267Z,5.07
2023-05-25T13:20:01.526Z,5.55
2023-05-25T13:22:49.985Z,5.68
2023-05-25T13:25:37.274Z,4.85
2023-05-25T13:28:26.104Z,4.57
2023-05-25T13:31:13.411Z,5.35
2023-05-25T13:34:00.417Z,5.40
2023-05-25T13:36:47.489Z,5.18
2023-05-25T13:39:34.357Z,4.45
2023-05-25T13:42:21.737Z,4.80
2023-05-25T13:45:11.596Z,5.30
2023-05-25T13:47:59.028Z,5.45
2023-05-25T13:50:46.530Z,5.30
2023-05-25T13:53:33.907Z,5.38
2023-05-25T13:56:20.904Z,4.85
2023-05-25T13:59:07.818Z,4.53
2023-05-25T14:01:56.616Z,4.45
2023-05-25T14:04:43.736Z,4.88
2023-05-25T14:07:31.308Z,4.88
2023-05-25T14:10:18.256Z,4.65
2023-05-25T14:13:05.061Z,5.03
2023-05-25T14:15:52.563Z,4.38
2023-05-25T14:18:41.050Z,4.43
2023-05-25T14:21:29.714Z,4.50
2023-05-25T14:24:16.791Z,4.60
2023-05-25T14:27:04.612Z,4.60
2023-05-25T14:29:52.596Z,4.60
2023-05-25T14:32:40.387Z,4.40
2023-05-25T14:35:29.081Z,4.60
2023-05-25T14:38:16.215Z,4.22
2023-05-25T14:41:03.009Z,4.25
2023-05-25T14:43:49.974Z,4.80
2023-05-25T14:46:37.198Z,4.72
2023-05-25T14:49:25.150Z,4.53
2023-05-25T14:52:13.497Z,5.05
2023-05-25T14:55:00.502Z,5.40
2023-05-25T14:57:47.697Z,4.53
2023-05-25T15:00:34.714Z,4.95
2023-05-25T15:03:22.170Z,4.80
2023-05-25T15:06:11.305Z,4.55
2023-05-25T15:08:59.527Z,4.97
2023-05-25T15:11:46.353Z,4.97
2023-05-25T15:14:33.087Z,4.60
2023-05-25T15:17:20.454Z,4.95
2023-05-25T15:20:08.165Z,4.85
2023-05-25T15:22:55.217Z,5.15
2023-05-25T15:25:43.856Z,4.70
2023-05-25T15:28:31.143Z,4.82
2023-05-25T15:31:17.894Z,4.80
2023-05-25T15:34:05.168Z,4.50
2023-05-25T15:36:52.489Z,5.15
2023-05-25T15:39:41.940Z,4.65
2023-05-25T15:42:30.440Z,4.65
2023-05-25T15:45:17.284Z,4.10
2023-05-25T15:48:04.203Z,4.93
2023-05-25T15:50:54.280Z,5.03
2023-05-25T15:53:41.128Z,4.90
2023-05-25T15:56:28.149Z,4.47
2023-05-25T15:59:16.968Z,4.53
2023-05-25T16:02:03.871Z,4.50
2023-05-25T16:04:50.560Z,4.82
2023-05-25T16:07:38.285Z,4.85
2023-05-25T16:10:25.492Z,4.38
2023-05-25T16:13:12.712Z,4.07
2023-05-25T16:16:01.058Z,4.05
2023-05-25T16:18:48.412Z,4.25
2023-05-25T16:21:37.762Z,4.30
2023-05-25T16:24:26.840Z,4.80
2023-05-25T16:27:14.378Z,4.10
2023-05-25T16:30:01.525Z,4.43
2023-05-25T16:32:52.229Z,4.28
2023-05-25T16:35:39.072Z,4.68
2023-05-25T16:38:26.252Z,3.63
2023-05-25T16:41:14.385Z,4.70
2023-05-25T16:44:01.592Z,4.22
2023-05-25T16:46:50.966Z,4.22
2023-05-25T16:49:39.288Z,4.43
2023-05-25T16:52:26.382Z,4.15
2023-05-25T16:55:15.669Z,4.15
2023-05-25T16:58:02.679Z,3.97
2023-05-25T17:00:49.858Z,4.50
2023-05-25T17:03:37.160Z,3.80
2023-05-25T17:06:25.680Z,4.32
2023-05-25T17:09:12.971Z,4.30
2023-05-25T17:12:01.781Z,4.30
2023-05-25T17:14:48.783Z,4.28
2023-05-25T17:17:35.941Z,3.90
2023-05-25T17:20:22.747Z,4.35
2023-05-25T17:23:11.359Z,4.25
2023-05-25T17:25:58.591Z,4.30
2023-05-25T17:28:45.756Z,4.40
2023-05-25T17:31:32.594Z,4.10
2023-05-25T17:34:19.923Z,4.05
2023-05-25T17:37:06.926Z,4.95
2023-05-25T17:39:55.735Z,4.53
2023-05-25T17:42:42.748Z,3.95
2023-05-25T17:45:29.913Z,4.40
2023-05-25T17:48:18.636Z,4.35
2023-05-25T17:51:05.703Z,4.40
2023-05-25T17:53:52.852Z,4.18
2023-05-25T17:56:41.379Z,4.18
2023-05-25T17:59:28.385Z,4.18
2023-05-25T18:02:16.552Z,4.40
2023-05-25T18:05:03.710Z,4.93
2023-05-25T18:07:51.593Z,4.45
2023-05-25T18:10:38.958Z,4.60
2023-05-25T18:13:27.070Z,5.25
2023-05-25T18:16:14.214Z,4.25
2023-05-25T18:19:01.276Z,3.65
2023-05-25T18:21:48.056Z,4.35
2023-05-25T18:24:35.168Z,4.05
2023-05-25T18:27:22.682Z,4.25
2023-05-25T18:30:12.735Z,4.00
2023-05-25T18:32:59.656Z,4.68
2023-05-25T18:35:47.231Z,3.85
2023-05-25T18:38:36.869Z,4.70
2023-05-25T18:41:24.526Z,4.45
2023-05-25T18:44:11.793Z,4.47
2023-05-25T18:47:00.375Z,4.38
2023-05-25T18:49:47.351Z,4.18
2023-05-25T18:52:34.353Z,4.13
2023-05-25T18:55:23.393Z,4.65
2023-05-25T18:58:09.981Z,4.53
2023-05-25T19:00:57.182Z,4.45
2023-05-25T19:03:45.730Z,4.57
2023-05-25T19:06:33.538Z,4.22
2023-05-25T19:09:20.768Z,4.47
2023-05-25T19:12:08.272Z,4.20
2023-05-25T19:14:55.827Z,4.05
2023-05-25T19:17:42.976Z,3.95
2023-05-25T19:20:32.783Z,4.53
2023-05-25T19:23:20.610Z,4.10
2023-05-25T19:26:07.465Z,4.22
2023-05-25T19:28:54.300Z,4.18
2023-05-25T19:31:43.725Z,4.30
2023-05-25T19:34:30.644Z,4.25
2023-05-25T19:37:19.287Z,4.57
2023-05-25T19:40:08.987Z,4.45
2023-05-25T19:42:55.728Z,4.22
2023-05-25T19:45:42.791Z,5.30
2023-05-25T19:48:29.873Z,4.40
2023-05-25T19:51:17.058Z,4.78
2023-05-25T19:54:05.422Z,4.00
2023-05-25T19:56:52.449Z,4.20
2023-05-25T19:59:41.827Z,4.80
2023-05-25T20:02:28.905Z,4.82
2023-05-25T20:05:16.072Z,4.18
2023-05-25T20:08:03.725Z,4.47
2023-05-25T20:10:52.741Z,4.65
2023-05-25T20:13:41.360Z,4.65
2023-05-25T20:16:28.258Z,4.78
2023-05-25T20:19:15.321Z,4.32
2023-05-25T20:25:46.752Z,4.35
2023-05-25T20:28:37.684Z,4.57
2023-05-25T20:31:25.354Z,4.47
2023-05-25T20:34:12.258Z,4.45
2023-05-25T20:37:01.104Z,5.05
2023-05-25T20:39:48.242Z,4.65
2023-05-25T20:42:35.162Z,4.07
2023-05-25T20:45:24.300Z,4.60
2023-05-25T20:48:15.485Z,4.90
2023-05-25T20:51:02.670Z,5.13
2023-05-25T20:53:49.449Z,4.53
2023-05-25T20:56:36.580Z,4.63
2023-05-25T20:59:23.801Z,4.13
2023-05-25T21:02:12.231Z,4.88
2023-05-25T21:04:58.997Z,4.63
2023-05-25T21:07:45.971Z,4.70
2023-05-25T21:10:36.143Z,3.97
2023-05-25T21:13:23.128Z,5.28
2023-05-25T21:16:10.387Z,4.75
2023-05-25T21:18:58.783Z,4.38
2023-05-25T21:21:45.859Z,4.72
2023-05-25T21:24:33.034Z,5.28
2023-05-25T21:27:20.123Z,4.45
2023-05-25T21:30:08.282Z,5.00
2023-05-25T21:32:55.089Z,5.10
2023-05-25T21:35:43.640Z,4.60
2023-05-25T21:38:30.625Z,4.35
2023-05-25T21:41:17.709Z,4.65
2023-05-25T21:44:04.910Z,4.43
2023-05-25T21:46:51.948Z,4.57
2023-05-25T21:49:38.907Z,4.37
2023-05-25T21:52:27.523Z,4.60
2023-05-25T21:55:14.495Z,4.53
2023-05-25T21:58:01.565Z,4.97
2023-05-25T22:00:48.439Z,4.18
2023-05-25T22:03:35.722Z,4.50
2023-05-25T22:06:22.662Z,4.43
2023-05-25T22:09:11.427Z,4.10
2023-05-25T22:11:58.397Z,4.07
2023-05-25T22:14:45.654Z,4.47
2023-05-25T22:17:32.476Z,4.70
2023-05-25T22:20:20.222Z,3.80
2023-05-25T22:23:07.166Z,4.10
2023-05-25T22:25:55.513Z,4.20
2023-05-25T22:28:42.646Z,4.40
2023-05-25T22:31:29.975Z,4.03
2023-05-25T22:34:17.266Z,4.00
2023-05-25T22:37:07.396Z,4.43
2023-05-25T22:39:54.539Z,4.50
2023-05-25T22:42:45.020Z,4.43
2023-05-25T22:45:32.281Z,4.27
2023-05-25T22:48:19.623Z,4.23
2023-05-25T22:51:06.564Z,4.87
2023-05-25T22:53:53.461Z,4.90
2023-05-25T22:56:40.652Z,4.77
2023-05-25T22:59:28.736Z,4.47
2023-05-25T23:02:15.909Z,4.63
2023-05-25T23:05:03.059Z,4.80
2023-05-25T23:07:49.786Z,3.83
2023-05-25T23:10:37.067Z,3.83
2023-05-25T23:13:24.523Z,4.20
2023-05-25T23:16:15.531Z,4.40
2023-05-25T23:19:02.378Z,4.13
2023-05-25T23:21:49.432Z,4.30
2023-05-25T23:24:36.597Z,4.70
2023-05-25T23:27:23.737Z,4.20
2023-05-25T23:30:14.067Z,4.60
2023-05-25T23:33:02.623Z,4.60
2023-05-25T23:35:50.526Z,4.27
2023-05-25T23:38:41.097Z,4.43
2023-05-25T23:41:28.644Z,3.87
2023-05-25T23:44:16.196Z,4.17
2023-05-25T23:47:03.028Z,3.50
2023-05-25T23:49:53.944Z,5.07
2023-05-25T23:52:41.481Z,4.60
2023-05-25T23:55:29.259Z,4.30
2023-05-25T23:58:16.236Z,4.27
